Clifton, Illinois
Current Conditions -  °F | °C
As of 8:55 PM on Monday 22 Dec 2014 (Local Time) from KIKK Reporting Station
Drizzle Drizzle  
Wind Chill: 32°   Ceiling: 1200
Heat Index: 40°   Visibility: 5mi
Dew Point: 39°   Wind: 15mph
Humidity: 97%   Direction: 110°ESE
Pressure: 29.63"   Gusts: NA
Location:  40.94°N, 87.93°W
Report Text: KIKK 230255Z AUTO 11013KT 5SM -DZ OVC012 05/04 A2963 RMK AO2 P0001 60004 T00460041
Loading
Personal Weather Stations






























Interactive Weather Map New forecast layout! Learn more

10-Day Weather Forecast

Advertisements
Track Severe Weather on mobile